sensor_id;sensor_type;location;lat;lon;timestamp;temperature;humidity
66019;HTU21D;52787;51.084;5.816;2023-04-30T00:01:10;13.06;68.97
66019;HTU21D;52787;51.084;5.816;2023-04-30T00:03:36;13.00;69.07
66019;HTU21D;52787;51.084;5.816;2023-04-30T00:06:02;12.93;69.27
66019;HTU21D;52787;51.084;5.816;2023-04-30T00:08:28;12.89;69.50
66019;HTU21D;52787;51.084;5.816;2023-04-30T00:10:54;12.85;69.70
66019;HTU21D;52787;51.084;5.816;2023-04-30T00:13:20;12.80;69.83
66019;HTU21D;52787;51.084;5.816;2023-04-30T00:15:46;12.77;69.89
66019;HTU21D;52787;51.084;5.816;2023-04-30T00:18:12;12.75;69.91
66019;HTU21D;52787;51.084;5.816;2023-04-30T00:20:38;12.71;69.93
66019;HTU21D;52787;51.084;5.816;2023-04-30T00:23:04;12.66;70.13
66019;HTU21D;52787;51.084;5.816;2023-04-30T00:25:29;12.64;70.07
66019;HTU21D;52787;51.084;5.816;2023-04-30T00:27:55;12.69;69.93
66019;HTU21D;52787;51.084;5.816;2023-04-30T00:30:21;12.72;69.58
66019;HTU21D;52787;51.084;5.816;2023-04-30T00:32:47;12.73;69.44
66019;HTU21D;52787;51.084;5.816;2023-04-30T00:35:13;12.69;69.41
66019;HTU21D;52787;51.084;5.816;2023-04-30T00:37:39;12.63;69.54
66019;HTU21D;52787;51.084;5.816;2023-04-30T00:40:05;12.57;69.78
66019;HTU21D;52787;51.084;5.816;2023-04-30T00:42:32;12.50;70.09
66019;HTU21D;52787;51.084;5.816;2023-04-30T00:44:58;12.45;70.27
66019;HTU21D;52787;51.084;5.816;2023-04-30T00:47:24;12.44;70.35
66019;HTU21D;52787;51.084;5.816;2023-04-30T00:49:50;12.40;70.37
66019;HTU21D;52787;51.084;5.816;2023-04-30T00:52:16;12.37;70.49
66019;HTU21D;52787;51.084;5.816;2023-04-30T00:54:42;12.35;70.42
66019;HTU21D;52787;51.084;5.816;2023-04-30T00:57:11;12.31;70.40
66019;HTU21D;52787;51.084;5.816;2023-04-30T00:59:38;12.25;70.54
66019;HTU21D;52787;51.084;5.816;2023-04-30T01:02:04;12.21;70.87
66019;HTU21D;52787;51.084;5.816;2023-04-30T01:04:30;12.19;71.06
66019;HTU21D;52787;51.084;5.816;2023-04-30T01:06:57;12.19;71.02
66019;HTU21D;52787;51.084;5.816;2023-04-30T01:09:25;12.14;71.13
66019;HTU21D;52787;51.084;5.816;2023-04-30T01:12:09;12.13;71.19
66019;HTU21D;52787;51.084;5.816;2023-04-30T01:17:37;12.13;70.96
66019;HTU21D;52787;51.084;5.816;2023-04-30T01:20:26;12.08;71.16
66019;HTU21D;52787;51.084;5.816;2023-04-30T01:23:08;12.02;71.30
66019;HTU21D;52787;51.084;5.816;2023-04-30T01:26:13;11.99;71.41
66019;HTU21D;52787;51.084;5.816;2023-04-30T01:28:48;12.04;71.00
66019;HTU21D;52787;51.084;5.816;2023-04-30T01:31:19;12.04;70.78
66019;HTU21D;52787;51.084;5.816;2023-04-30T01:33:45;12.03;70.76
66019;HTU21D;52787;51.084;5.816;2023-04-30T01:37:13;12.01;70.84
66019;HTU21D;52787;51.084;5.816;2023-04-30T01:42:15;11.97;70.91
66019;HTU21D;52787;51.084;5.816;2023-04-30T01:48:13;11.85;71.42
66019;HTU21D;52787;51.084;5.816;2023-04-30T01:50:51;11.78;71.59
66019;HTU21D;52787;51.084;5.816;2023-04-30T01:53:34;11.76;71.64
66019;HTU21D;52787;51.084;5.816;2023-04-30T01:56:31;11.72;71.79
66019;HTU21D;52787;51.084;5.816;2023-04-30T01:59:04;11.68;72.03
66019;HTU21D;52787;51.084;5.816;2023-04-30T02:01:31;11.63;72.18
66019;HTU21D;52787;51.084;5.816;2023-04-30T02:03:58;11.62;72.19
66019;HTU21D;52787;51.084;5.816;2023-04-30T02:06:25;11.58;72.33
66019;HTU21D;52787;51.084;5.816;2023-04-30T02:08:56;11.55;72.41
66019;HTU21D;52787;51.084;5.816;2023-04-30T02:11:30;11.47;72.67
66019;HTU21D;52787;51.084;5.816;2023-04-30T02:13:56;11.45;73.01
66019;HTU21D;52787;51.084;5.816;2023-04-30T02:16:23;11.44;73.32
66019;HTU21D;52787;51.084;5.816;2023-04-30T02:18:48;11.45;73.17
66019;HTU21D;52787;51.084;5.816;2023-04-30T02:21:15;11.46;72.99
66019;HTU21D;52787;51.084;5.816;2023-04-30T02:23:41;11.44;73.15
66019;HTU21D;52787;51.084;5.816;2023-04-30T02:26:06;11.42;73.30
66019;HTU21D;52787;51.084;5.816;2023-04-30T02:28:32;11.39;73.51
66019;HTU21D;52787;51.084;5.816;2023-04-30T02:30:58;11.37;73.58
66019;HTU21D;52787;51.084;5.816;2023-04-30T02:33:24;11.41;73.36
66019;HTU21D;52787;51.084;5.816;2023-04-30T02:35:50;11.40;73.23
66019;HTU21D;52787;51.084;5.816;2023-04-30T02:38:16;11.40;73.07
66019;HTU21D;52787;51.084;5.816;2023-04-30T02:40:41;11.33;73.25
66019;HTU21D;52787;51.084;5.816;2023-04-30T02:43:07;11.30;73.29
66019;HTU21D;52787;51.084;5.816;2023-04-30T02:45:33;11.28;73.41
66019;HTU21D;52787;51.084;5.816;2023-04-30T02:47:59;11.25;73.51
66019;HTU21D;52787;51.084;5.816;2023-04-30T02:50:25;11.24;73.47
66019;HTU21D;52787;51.084;5.816;2023-04-30T02:52:50;11.20;73.46
66019;HTU21D;52787;51.084;5.816;2023-04-30T02:55:16;11.17;73.29
66019;HTU21D;52787;51.084;5.816;2023-04-30T02:57:42;11.17;73.22
66019;HTU21D;52787;51.084;5.816;2023-04-30T03:00:08;11.13;73.38
66019;HTU21D;52787;51.084;5.816;2023-04-30T03:02:34;11.08;73.86
66019;HTU21D;52787;51.084;5.816;2023-04-30T03:05:00;11.03;73.89
66019;HTU21D;52787;51.084;5.816;2023-04-30T03:07:27;11.01;73.91
66019;HTU21D;52787;51.084;5.816;2023-04-30T03:09:53;10.95;74.30
66019;HTU21D;52787;51.084;5.816;2023-04-30T03:12:18;10.94;74.52
66019;HTU21D;52787;51.084;5.816;2023-04-30T03:14:44;10.94;74.47
66019;HTU21D;52787;51.084;5.816;2023-04-30T03:17:10;10.94;74.34
66019;HTU21D;52787;51.084;5.816;2023-04-30T03:19:36;10.88;74.21
66019;HTU21D;52787;51.084;5.816;2023-04-30T03:22:02;10.86;74.37
66019;HTU21D;52787;51.084;5.816;2023-04-30T03:24:27;10.85;74.62
66019;HTU21D;52787;51.084;5.816;2023-04-30T03:26:53;10.80;74.84
66019;HTU21D;52787;51.084;5.816;2023-04-30T03:29:19;10.79;75.02
66019;HTU21D;52787;51.084;5.816;2023-04-30T03:31:45;10.74;75.15
66019;HTU21D;52787;51.084;5.816;2023-04-30T03:34:11;10.73;75.06
66019;HTU21D;52787;51.084;5.816;2023-04-30T03:36:37;10.72;74.79
66019;HTU21D;52787;51.084;5.816;2023-04-30T03:39:03;10.68;74.83
66019;HTU21D;52787;51.084;5.816;2023-04-30T03:41:29;10.67;74.96
66019;HTU21D;52787;51.084;5.816;2023-04-30T03:43:55;10.69;74.86
66019;HTU21D;52787;51.084;5.816;2023-04-30T03:46:21;10.71;74.83
66019;HTU21D;52787;51.084;5.816;2023-04-30T03:48:47;10.70;74.94
66019;HTU21D;52787;51.084;5.816;2023-04-30T03:51:12;10.66;75.12
66019;HTU21D;52787;51.084;5.816;2023-04-30T03:53:38;10.63;75.11
66019;HTU21D;52787;51.084;5.816;2023-04-30T03:56:04;10.60;75.19
66019;HTU21D;52787;51.084;5.816;2023-04-30T03:58:31;10.55;75.41
66019;HTU21D;52787;51.084;5.816;2023-04-30T04:00:57;10.50;75.74
66019;HTU21D;52787;51.084;5.816;2023-04-30T04:03:23;10.51;75.54
66019;HTU21D;52787;51.084;5.816;2023-04-30T04:05:48;10.48;75.32
66019;HTU21D;52787;51.084;5.816;2023-04-30T04:08:14;10.46;75.05
66019;HTU21D;52787;51.084;5.816;2023-04-30T04:10:41;10.45;75.09
66019;HTU21D;52787;51.084;5.816;2023-04-30T04:13:07;10.44;75.44
66019;HTU21D;52787;51.084;5.816;2023-04-30T04:15:33;10.43;75.67
66019;HTU21D;52787;51.084;5.816;2023-04-30T04:17:59;10.48;75.70
66019;HTU21D;52787;51.084;5.816;2023-04-30T04:20:25;10.48;75.82
66019;HTU21D;52787;51.084;5.816;2023-04-30T04:22:51;10.49;75.85
66019;HTU21D;52787;51.084;5.816;2023-04-30T04:25:17;10.49;75.95
66019;HTU21D;52787;51.084;5.816;2023-04-30T04:27:43;10.48;76.13
66019;HTU21D;52787;51.084;5.816;2023-04-30T04:30:10;10.45;76.16
66019;HTU21D;52787;51.084;5.816;2023-04-30T04:32:36;10.51;76.12
66019;HTU21D;52787;51.084;5.816;2023-04-30T04:35:13;10.52;75.92
66019;HTU21D;52787;51.084;5.816;2023-04-30T04:37:39;10.54;75.99
66019;HTU21D;52787;51.084;5.816;2023-04-30T04:40:05;10.55;75.91
66019;HTU21D;52787;51.084;5.816;2023-04-30T04:42:32;10.55;75.91
66019;HTU21D;52787;51.084;5.816;2023-04-30T04:44:58;10.55;75.96
66019;HTU21D;52787;51.084;5.816;2023-04-30T04:47:23;10.55;76.10
66019;HTU21D;52787;51.084;5.816;2023-04-30T04:49:49;10.55;76.28
66019;HTU21D;52787;51.084;5.816;2023-04-30T04:52:15;10.57;76.33
66019;HTU21D;52787;51.084;5.816;2023-04-30T04:54:41;10.65;75.85
66019;HTU21D;52787;51.084;5.816;2023-04-30T04:57:06;10.73;75.51
66019;HTU21D;52787;51.084;5.816;2023-04-30T04:59:32;10.75;75.60
66019;HTU21D;52787;51.084;5.816;2023-04-30T05:01:58;10.80;75.36
66019;HTU21D;52787;51.084;5.816;2023-04-30T05:04:23;10.84;75.29
66019;HTU21D;52787;51.084;5.816;2023-04-30T05:06:49;10.85;75.45
66019;HTU21D;52787;51.084;5.816;2023-04-30T05:09:15;10.87;75.34
66019;HTU21D;52787;51.084;5.816;2023-04-30T05:11:41;10.93;75.20
66019;HTU21D;52787;51.084;5.816;2023-04-30T05:14:08;10.98;75.02
66019;HTU21D;52787;51.084;5.816;2023-04-30T05:16:33;11.00;74.92
66019;HTU21D;52787;51.084;5.816;2023-04-30T05:18:59;10.99;75.06
66019;HTU21D;52787;51.084;5.816;2023-04-30T05:21:25;10.99;75.31
66019;HTU21D;52787;51.084;5.816;2023-04-30T05:23:54;10.95;75.65
66019;HTU21D;52787;51.084;5.816;2023-04-30T05:26:20;10.83;76.15
66019;HTU21D;52787;51.084;5.816;2023-04-30T05:28:49;10.70;76.83
66019;HTU21D;52787;51.084;5.816;2023-04-30T05:31:17;10.70;77.12
66019;HTU21D;52787;51.084;5.816;2023-04-30T05:33:43;10.78;77.14
66019;HTU21D;52787;51.084;5.816;2023-04-30T05:36:09;10.89;76.88
66019;HTU21D;52787;51.084;5.816;2023-04-30T05:38:35;10.90;76.92
66019;HTU21D;52787;51.084;5.816;2023-04-30T05:41:02;10.88;77.17
66019;HTU21D;52787;51.084;5.816;2023-04-30T05:43:28;10.93;77.18
66019;HTU21D;52787;51.084;5.816;2023-04-30T05:45:54;11.02;77.02
66019;HTU21D;52787;51.084;5.816;2023-04-30T05:48:20;11.12;76.70
66019;HTU21D;52787;51.084;5.816;2023-04-30T05:50:46;11.20;76.42
66019;HTU21D;52787;51.084;5.816;2023-04-30T05:53:12;11.30;76.21
66019;HTU21D;52787;51.084;5.816;2023-04-30T05:55:38;11.38;75.99
66019;HTU21D;52787;51.084;5.816;2023-04-30T05:58:04;11.42;75.89
66019;HTU21D;52787;51.084;5.816;2023-04-30T06:00:30;11.51;75.70
66019;HTU21D;52787;51.084;5.816;2023-04-30T06:02:56;11.58;75.59
66019;HTU21D;52787;51.084;5.816;2023-04-30T06:05:22;11.60;75.57
66019;HTU21D;52787;51.084;5.816;2023-04-30T06:07:48;11.61;75.66
66019;HTU21D;52787;51.084;5.816;2023-04-30T06:10:14;11.63;75.73
66019;HTU21D;52787;51.084;5.816;2023-04-30T06:12:40;11.73;75.58
66019;HTU21D;52787;51.084;5.816;2023-04-30T06:15:06;11.76;75.46
66019;HTU21D;52787;51.084;5.816;2023-04-30T06:17:32;11.81;75.36
66019;HTU21D;52787;51.084;5.816;2023-04-30T06:19:58;11.86;75.12
66019;HTU21D;52787;51.084;5.816;2023-04-30T06:22:27;11.93;74.86
66019;HTU21D;52787;51.084;5.816;2023-04-30T06:24:53;11.99;74.57
66019;HTU21D;52787;51.084;5.816;2023-04-30T06:27:19;12.05;74.31
66019;HTU21D;52787;51.084;5.816;2023-04-30T06:29:45;12.07;74.02
66019;HTU21D;52787;51.084;5.816;2023-04-30T06:32:10;12.11;73.96
66019;HTU21D;52787;51.084;5.816;2023-04-30T06:34:37;12.17;73.73
66019;HTU21D;52787;51.084;5.816;2023-04-30T06:37:03;12.22;73.65
66019;HTU21D;52787;51.084;5.816;2023-04-30T06:39:29;12.27;73.63
66019;HTU21D;52787;51.084;5.816;2023-04-30T06:41:55;12.31;73.44
66019;HTU21D;52787;51.084;5.816;2023-04-30T06:44:20;12.35;73.43
66019;HTU21D;52787;51.084;5.816;2023-04-30T06:46:46;12.42;73.43
66019;HTU21D;52787;51.084;5.816;2023-04-30T06:49:12;12.48;73.39
66019;HTU21D;52787;51.084;5.816;2023-04-30T06:51:39;12.53;73.22
66019;HTU21D;52787;51.084;5.816;2023-04-30T06:54:05;12.55;73.15
66019;HTU21D;52787;51.084;5.816;2023-04-30T06:56:32;12.56;73.46
66019;HTU21D;52787;51.084;5.816;2023-04-30T06:58:58;12.58;73.70
66019;HTU21D;52787;51.084;5.816;2023-04-30T07:01:24;12.60;73.66
66019;HTU21D;52787;51.084;5.816;2023-04-30T07:03:50;12.63;73.87
66019;HTU21D;52787;51.084;5.816;2023-04-30T07:06:16;12.73;73.73
66019;HTU21D;52787;51.084;5.816;2023-04-30T07:08:42;12.81;73.54
66019;HTU21D;52787;51.084;5.816;2023-04-30T07:11:08;12.89;73.15
66019;HTU21D;52787;51.084;5.816;2023-04-30T07:13:34;13.00;72.68
66019;HTU21D;52787;51.084;5.816;2023-04-30T07:16:00;13.09;72.32
66019;HTU21D;52787;51.084;5.816;2023-04-30T07:18:26;13.21;72.14
66019;HTU21D;52787;51.084;5.816;2023-04-30T07:20:52;13.31;72.05
66019;HTU21D;52787;51.084;5.816;2023-04-30T07:23:18;13.38;72.09
66019;HTU21D;52787;51.084;5.816;2023-04-30T07:25:44;13.44;71.80
66019;HTU21D;52787;51.084;5.816;2023-04-30T07:28:09;13.50;71.15
66019;HTU21D;52787;51.084;5.816;2023-04-30T07:30:35;13.55;71.03
66019;HTU21D;52787;51.084;5.816;2023-04-30T07:33:01;13.63;70.33
66019;HTU21D;52787;51.084;5.816;2023-04-30T07:35:27;13.71;70.18
66019;HTU21D;52787;51.084;5.816;2023-04-30T07:37:53;13.80;70.10
66019;HTU21D;52787;51.084;5.816;2023-04-30T07:40:19;13.89;70.47
66019;HTU21D;52787;51.084;5.816;2023-04-30T07:42:45;13.90;69.81
66019;HTU21D;52787;51.084;5.816;2023-04-30T07:45:11;13.88;69.56
66019;HTU21D;52787;51.084;5.816;2023-04-30T07:47:37;13.92;69.76
66019;HTU21D;52787;51.084;5.816;2023-04-30T07:50:04;13.96;70.08
66019;HTU21D;52787;51.084;5.816;2023-04-30T07:52:30;14.10;69.87
66019;HTU21D;52787;51.084;5.816;2023-04-30T07:54:56;14.21;69.06
66019;HTU21D;52787;51.084;5.816;2023-04-30T07:57:22;14.30;68.90
66019;HTU21D;52787;51.084;5.816;2023-04-30T07:59:48;14.42;68.39
66019;HTU21D;52787;51.084;5.816;2023-04-30T08:02:14;14.50;68.89
66019;HTU21D;52787;51.084;5.816;2023-04-30T08:04:39;14.60;68.82
66019;HTU21D;52787;51.084;5.816;2023-04-30T08:07:05;14.72;67.91
66019;HTU21D;52787;51.084;5.816;2023-04-30T08:09:31;14.82;67.87
66019;HTU21D;52787;51.084;5.816;2023-04-30T08:11:57;14.91;67.04
66019;HTU21D;52787;51.084;5.816;2023-04-30T08:14:23;15.00;66.30
66019;HTU21D;52787;51.084;5.816;2023-04-30T08:16:49;15.12;66.70
66019;HTU21D;52787;51.084;5.816;2023-04-30T08:19:14;15.26;66.13
66019;HTU21D;52787;51.084;5.816;2023-04-30T08:21:40;15.38;65.87
66019;HTU21D;52787;51.084;5.816;2023-04-30T08:24:06;15.47;65.55
66019;HTU21D;52787;51.084;5.816;2023-04-30T08:26:32;15.55;66.02
66019;HTU21D;52787;51.084;5.816;2023-04-30T08:29:01;15.68;65.71
66019;HTU21D;52787;51.084;5.816;2023-04-30T08:31:27;15.81;65.37
66019;HTU21D;52787;51.084;5.816;2023-04-30T08:33:53;15.92;65.34
66019;HTU21D;52787;51.084;5.816;2023-04-30T08:36:19;16.04;64.92
66019;HTU21D;52787;51.084;5.816;2023-04-30T08:38:44;16.18;64.23
66019;HTU21D;52787;51.084;5.816;2023-04-30T08:41:14;16.31;62.98
66019;HTU21D;52787;51.084;5.816;2023-04-30T08:43:42;16.47;63.21
66019;HTU21D;52787;51.084;5.816;2023-04-30T08:46:11;16.60;61.87
66019;HTU21D;52787;51.084;5.816;2023-04-30T08:48:40;16.69;61.32
66019;HTU21D;52787;51.084;5.816;2023-04-30T08:51:06;16.73;60.80
66019;HTU21D;52787;51.084;5.816;2023-04-30T08:53:36;16.82;60.05
66019;HTU21D;52787;51.084;5.816;2023-04-30T08:56:03;16.96;59.32
66019;HTU21D;52787;51.084;5.816;2023-04-30T08:58:29;17.09;59.44
66019;HTU21D;52787;51.084;5.816;2023-04-30T09:00:57;17.20;58.99
66019;HTU21D;52787;51.084;5.816;2023-04-30T09:03:24;17.33;58.46
66019;HTU21D;52787;51.084;5.816;2023-04-30T09:05:50;17.45;58.06
66019;HTU21D;52787;51.084;5.816;2023-04-30T09:08:17;17.56;58.36
66019;HTU21D;52787;51.084;5.816;2023-04-30T09:10:45;17.69;57.75
66019;HTU21D;52787;51.084;5.816;2023-04-30T09:13:11;17.81;56.77
66019;HTU21D;52787;51.084;5.816;2023-04-30T09:15:38;17.91;56.13
66019;HTU21D;52787;51.084;5.816;2023-04-30T09:18:13;18.00;55.65
66019;HTU21D;52787;51.084;5.816;2023-04-30T09:23:28;18.25;55.19
66019;HTU21D;52787;51.084;5.816;2023-04-30T09:25:54;18.34;54.49
66019;HTU21D;52787;51.084;5.816;2023-04-30T09:28:22;18.41;53.86
66019;HTU21D;52787;51.084;5.816;2023-04-30T09:30:50;18.50;53.31
66019;HTU21D;52787;51.084;5.816;2023-04-30T09:33:17;18.59;52.85
66019;HTU21D;52787;51.084;5.816;2023-04-30T09:35:43;18.66;51.66
66019;HTU21D;52787;51.084;5.816;2023-04-30T09:38:29;18.79;51.49
66019;HTU21D;52787;51.084;5.816;2023-04-30T09:40:58;18.93;51.12
66019;HTU21D;52787;51.084;5.816;2023-04-30T09:43:25;19.08;50.87
66019;HTU21D;52787;51.084;5.816;2023-04-30T09:45:51;19.18;49.84
66019;HTU21D;52787;51.084;5.816;2023-04-30T09:48:22;19.31;49.56
66019;HTU21D;52787;51.084;5.816;2023-04-30T09:50:50;19.44;49.21
66019;HTU21D;52787;51.084;5.816;2023-04-30T09:53:17;19.58;48.21
66019;HTU21D;52787;51.084;5.816;2023-04-30T09:55:46;19.69;48.79
66019;HTU21D;52787;51.084;5.816;2023-04-30T09:58:14;19.84;48.24
66019;HTU21D;52787;51.084;5.816;2023-04-30T10:00:44;19.99;47.89
66019;HTU21D;52787;51.084;5.816;2023-04-30T10:03:12;20.17;47.30
66019;HTU21D;52787;51.084;5.816;2023-04-30T10:05:47;20.40;46.22
66019;HTU21D;52787;51.084;5.816;2023-04-30T10:08:30;20.80;45.94
66019;HTU21D;52787;51.084;5.816;2023-04-30T10:11:02;21.16;43.45
66019;HTU21D;52787;51.084;5.816;2023-04-30T10:13:42;21.32;41.69
66019;HTU21D;52787;51.084;5.816;2023-04-30T10:18:59;22.17;39.92
66019;HTU21D;52787;51.084;5.816;2023-04-30T10:21:39;22.51;39.61
66019;HTU21D;52787;51.084;5.816;2023-04-30T10:24:09;22.73;37.44
66019;HTU21D;52787;51.084;5.816;2023-04-30T10:26:37;23.00;36.23
66019;HTU21D;52787;51.084;5.816;2023-04-30T10:29:06;23.21;36.28
66019;HTU21D;52787;51.084;5.816;2023-04-30T10:31:33;23.39;36.85
66019;HTU21D;52787;51.084;5.816;2023-04-30T10:34:44;23.55;36.01
66019;HTU21D;52787;51.084;5.816;2023-04-30T10:39:51;26.01;29.97
66019;HTU21D;52787;51.084;5.816;2023-04-30T10:42:18;27.81;27.09
66019;HTU21D;52787;51.084;5.816;2023-04-30T10:44:43;29.34;25.30
66019;HTU21D;52787;51.084;5.816;2023-04-30T10:47:10;30.62;23.82
66019;HTU21D;52787;51.084;5.816;2023-04-30T10:49:36;31.57;22.97
66019;HTU21D;52787;51.084;5.816;2023-04-30T10:52:03;32.56;21.00
66019;HTU21D;52787;51.084;5.816;2023-04-30T10:54:32;33.48;19.70
66019;HTU21D;52787;51.084;5.816;2023-04-30T11:02:45;33.27;20.02
66019;HTU21D;52787;51.084;5.816;2023-04-30T11:05:15;34.15;18.41
66019;HTU21D;52787;51.084;5.816;2023-04-30T11:07:50;34.44;17.66
66019;HTU21D;52787;51.084;5.816;2023-04-30T11:10:23;34.71;16.14
66019;HTU21D;52787;51.084;5.816;2023-04-30T11:12:52;34.69;17.03
66019;HTU21D;52787;51.084;5.816;2023-04-30T11:15:21;34.73;17.06
66019;HTU21D;52787;51.084;5.816;2023-04-30T11:17:50;34.82;16.93
66019;HTU21D;52787;51.084;5.816;2023-04-30T11:20:22;35.05;16.94
66019;HTU21D;52787;51.084;5.816;2023-04-30T11:23:16;35.09;16.62
66019;HTU21D;52787;51.084;5.816;2023-04-30T11:25:47;34.82;16.59
66019;HTU21D;52787;51.084;5.816;2023-04-30T11:28:20;34.35;17.90
66019;HTU21D;52787;51.084;5.816;2023-04-30T11:33:25;31.79;21.73
66019;HTU21D;52787;51.084;5.816;2023-04-30T11:35:54;30.39;23.95
66019;HTU21D;52787;51.084;5.816;2023-04-30T11:38:35;29.43;25.62
66019;HTU21D;52787;51.084;5.816;2023-04-30T11:41:02;28.33;26.23
66019;HTU21D;52787;51.084;5.816;2023-04-30T11:43:30;27.56;27.39
66019;HTU21D;52787;51.084;5.816;2023-04-30T11:46:15;27.00;28.97
66019;HTU21D;52787;51.084;5.816;2023-04-30T11:48:45;26.81;29.71
66019;HTU21D;52787;51.084;5.816;2023-04-30T11:51:19;26.93;29.94
66019;HTU21D;52787;51.084;5.816;2023-04-30T11:53:50;27.14;29.15
66019;HTU21D;52787;51.084;5.816;2023-04-30T11:56:23;27.08;28.53
66019;HTU21D;52787;51.084;5.816;2023-04-30T11:58:51;27.10;28.77
66019;HTU21D;52787;51.084;5.816;2023-04-30T12:01:18;27.25;29.27
66019;HTU21D;52787;51.084;5.816;2023-04-30T12:03:50;27.50;28.83
66019;HTU21D;52787;51.084;5.816;2023-04-30T12:06:25;27.61;28.90
66019;HTU21D;52787;51.084;5.816;2023-04-30T12:08:56;27.95;27.88
66019;HTU21D;52787;51.084;5.816;2023-04-30T12:11:30;28.49;26.53
66019;HTU21D;52787;51.084;5.816;2023-04-30T12:14:03;29.44;24.14
66019;HTU21D;52787;51.084;5.816;2023-04-30T12:16:58;30.71;22.62
66019;HTU21D;52787;51.084;5.816;2023-04-30T12:19:24;30.87;22.53
66019;HTU21D;52787;51.084;5.816;2023-04-30T12:21:52;31.59;23.22
66019;HTU21D;52787;51.084;5.816;2023-04-30T12:24:19;31.48;21.99
66019;HTU21D;52787;51.084;5.816;2023-04-30T12:26:46;30.70;23.15
66019;HTU21D;52787;51.084;5.816;2023-04-30T12:29:16;31.58;21.92
66019;HTU21D;52787;51.084;5.816;2023-04-30T12:31:44;32.49;19.83
66019;HTU21D;52787;51.084;5.816;2023-04-30T12:34:12;32.84;19.15
66019;HTU21D;52787;51.084;5.816;2023-04-30T12:36:40;32.87;19.59
66019;HTU21D;52787;51.084;5.816;2023-04-30T12:39:11;32.03;20.64
66019;HTU21D;52787;51.084;5.816;2023-04-30T12:41:41;31.30;21.73
66019;HTU21D;52787;51.084;5.816;2023-04-30T12:44:24;32.08;21.53
66019;HTU21D;52787;51.084;5.816;2023-04-30T12:46:54;33.07;19.79
66019;HTU21D;52787;51.084;5.816;2023-04-30T12:49:26;33.91;18.70
66019;HTU21D;52787;51.084;5.816;2023-04-30T12:52:04;34.61;17.86
66019;HTU21D;52787;51.084;5.816;2023-04-30T12:54:35;33.52;18.81
66019;HTU21D;52787;51.084;5.816;2023-04-30T12:57:07;32.49;20.48
66019;HTU21D;52787;51.084;5.816;2023-04-30T12:59:54;31.75;20.85
66019;HTU21D;52787;51.084;5.816;2023-04-30T13:02:24;30.84;22.31
66019;HTU21D;52787;51.084;5.816;2023-04-30T13:04:52;30.74;22.70
66019;HTU21D;52787;51.084;5.816;2023-04-30T13:07:18;31.11;22.83
66019;HTU21D;52787;51.084;5.816;2023-04-30T13:09:44;31.34;21.95
66019;HTU21D;52787;51.084;5.816;2023-04-30T13:12:10;31.39;22.43
66019;HTU21D;52787;51.084;5.816;2023-04-30T13:14:36;30.81;22.74
66019;HTU21D;52787;51.084;5.816;2023-04-30T13:17:02;30.34;23.59
66019;HTU21D;52787;51.084;5.816;2023-04-30T13:19:31;29.85;24.42
66019;HTU21D;52787;51.084;5.816;2023-04-30T13:21:57;29.44;25.46
66019;HTU21D;52787;51.084;5.816;2023-04-30T13:24:26;28.49;26.73
66019;HTU21D;52787;51.084;5.816;2023-04-30T13:26:52;28.04;28.08
66019;HTU21D;52787;51.084;5.816;2023-04-30T13:29:18;28.25;28.16
66019;HTU21D;52787;51.084;5.816;2023-04-30T13:31:45;28.67;27.84
66019;HTU21D;52787;51.084;5.816;2023-04-30T13:34:16;30.22;25.59
66019;HTU21D;52787;51.084;5.816;2023-04-30T13:36:42;31.95;23.16
66019;HTU21D;52787;51.084;5.816;2023-04-30T13:39:09;33.52;20.43
66019;HTU21D;52787;51.084;5.816;2023-04-30T13:41:36;34.24;18.27
66019;HTU21D;52787;51.084;5.816;2023-04-30T13:44:01;34.32;18.20
66019;HTU21D;52787;51.084;5.816;2023-04-30T13:46:28;34.77;18.48
66019;HTU21D;52787;51.084;5.816;2023-04-30T13:48:54;35.58;17.28
66019;HTU21D;52787;51.084;5.816;2023-04-30T13:51:20;34.96;17.43
66019;HTU21D;52787;51.084;5.816;2023-04-30T13:53:46;33.73;18.96
66019;HTU21D;52787;51.084;5.816;2023-04-30T13:56:12;33.50;19.79
66019;HTU21D;52787;51.084;5.816;2023-04-30T13:58:39;34.11;18.63
66019;HTU21D;52787;51.084;5.816;2023-04-30T14:01:05;33.95;18.81
66019;HTU21D;52787;51.084;5.816;2023-04-30T14:03:31;33.23;19.89
66019;HTU21D;52787;51.084;5.816;2023-04-30T14:05:57;32.15;20.99
66019;HTU21D;52787;51.084;5.816;2023-04-30T14:08:23;31.16;22.07
66019;HTU21D;52787;51.084;5.816;2023-04-30T14:10:49;30.12;23.87
66019;HTU21D;52787;51.084;5.816;2023-04-30T14:13:14;29.47;25.29
66019;HTU21D;52787;51.084;5.816;2023-04-30T14:15:40;29.97;25.44
66019;HTU21D;52787;51.084;5.816;2023-04-30T14:18:06;31.31;24.00
66019;HTU21D;52787;51.084;5.816;2023-04-30T14:20:32;32.71;21.70
66019;HTU21D;52787;51.084;5.816;2023-04-30T14:22:58;33.35;19.88
66019;HTU21D;52787;51.084;5.816;2023-04-30T14:25:24;33.63;19.29
66019;HTU21D;52787;51.084;5.816;2023-04-30T14:27:49;34.52;18.45
66019;HTU21D;52787;51.084;5.816;2023-04-30T14:30:15;35.34;17.69
66019;HTU21D;52787;51.084;5.816;2023-04-30T14:32:41;35.85;17.16
66019;HTU21D;52787;51.084;5.816;2023-04-30T14:35:07;36.10;16.52
66019;HTU21D;52787;51.084;5.816;2023-04-30T14:37:34;35.34;17.64
66019;HTU21D;52787;51.084;5.816;2023-04-30T14:40:00;35.06;17.87
66019;HTU21D;52787;51.084;5.816;2023-04-30T14:42:26;34.57;18.06
66019;HTU21D;52787;51.084;5.816;2023-04-30T14:44:52;34.26;18.56
66019;HTU21D;52787;51.084;5.816;2023-04-30T14:47:18;33.62;18.79
66019;HTU21D;52787;51.084;5.816;2023-04-30T14:49:45;32.35;20.12
66019;HTU21D;52787;51.084;5.816;2023-04-30T14:52:12;32.04;21.64
66019;HTU21D;52787;51.084;5.816;2023-04-30T14:54:38;32.74;21.30
66019;HTU21D;52787;51.084;5.816;2023-04-30T14:57:05;33.56;20.35
66019;HTU21D;52787;51.084;5.816;2023-04-30T14:59:31;34.39;18.95
66019;HTU21D;52787;51.084;5.816;2023-04-30T15:01:59;34.98;17.88
66019;HTU21D;52787;51.084;5.816;2023-04-30T15:04:25;35.39;17.15
66019;HTU21D;52787;51.084;5.816;2023-04-30T15:06:50;35.71;16.45
66019;HTU21D;52787;51.084;5.816;2023-04-30T15:09:16;36.03;16.34
66019;HTU21D;52787;51.084;5.816;2023-04-30T15:11:42;36.29;16.22
66019;HTU21D;52787;51.084;5.816;2023-04-30T15:14:08;36.19;15.69
66019;HTU21D;52787;51.084;5.816;2023-04-30T15:16:34;35.33;16.35
66019;HTU21D;52787;51.084;5.816;2023-04-30T15:19:00;34.23;17.50
66019;HTU21D;52787;51.084;5.816;2023-04-30T15:21:25;33.06;18.89
66019;HTU21D;52787;51.084;5.816;2023-04-30T15:23:53;31.74;21.01
66019;HTU21D;52787;51.084;5.816;2023-04-30T15:26:19;30.51;22.08
66019;HTU21D;52787;51.084;5.816;2023-04-30T15:28:45;29.28;23.59
66019;HTU21D;52787;51.084;5.816;2023-04-30T15:31:10;28.33;24.66
66019;HTU21D;52787;51.084;5.816;2023-04-30T15:33:36;27.79;26.00
66019;HTU21D;52787;51.084;5.816;2023-04-30T15:36:09;27.91;27.71
66019;HTU21D;52787;51.084;5.816;2023-04-30T15:38:35;29.03;26.84
66019;HTU21D;52787;51.084;5.816;2023-04-30T15:41:01;30.24;24.82
66019;HTU21D;52787;51.084;5.816;2023-04-30T15:43:27;30.89;23.34
66019;HTU21D;52787;51.084;5.816;2023-04-30T15:45:54;31.10;22.18